Time;durP1;ratioP1;P1;durP2;ratioP2;P2;SDS_P1;SDS_P2;PMS_P1;PMS_P2;Temp;Humidity;BMP_temperature;BMP_pressure;BME280_temperature;BME280_humidity;BME280_pressure;Samples;Min_cycle;Max_cycle;Signal;HPM_P1;HPM_P2
2021/04/22 00:01:50;;;;;;;;;;;12.00;62.00;;;;;;4363007;32;26492;-77
2021/04/22 00:04:22;;;;;;;;;;;12.00;62.10;;;;;;4376398;32;20090;-77
2021/04/22 00:06:55;;;;;;;;;;;12.00;62.00;;;;;;4363292;32;28491;-77
2021/04/22 00:09:24;;;;;;;;;;;12.00;62.80;;;;;;4362671;32;28308;-77
2021/04/22 00:11:57;;;;;;;;;;;12.00;62.50;;;;;;4363150;32;43016;-77
2021/04/22 00:14:29;;;;;;;;;;;12.00;62.20;;;;;;4376308;32;20391;-77
2021/04/22 00:16:56;;;;;;;;;;;12.00;62.00;;;;;;4376272;32;38680;-77
2021/04/22 00:19:28;;;;;;;;;;;11.90;62.10;;;;;;4363352;32;20410;-77
2021/04/22 00:21:58;;;;;;;;;;;11.90;62.20;;;;;;4362590;32;29392;-77
2021/04/22 00:24:32;;;;;;;;;;;12.00;62.30;;;;;;4350273;32;42992;-77
2021/04/22 00:27:01;;;;;;;;;;;11.90;62.20;;;;;;4350031;32;39776;-76
2021/04/22 00:29:31;;;;;;;;;;;11.90;62.10;;;;;;4376036;32;20019;-77
2021/04/22 00:31:57;;;;;;;;;;;11.90;61.90;;;;;;4376001;32;20028;-77
2021/04/22 00:34:26;;;;;;;;;;;11.80;62.00;;;;;;4363189;32;20016;-77
2021/04/22 00:36:58;;;;;;;;;;;11.80;61.70;;;;;;4363504;32;20049;-77
2021/04/22 00:39:29;;;;;;;;;;;11.80;62.00;;;;;;4350242;32;37604;-77
2021/04/22 00:42:04;;;;;;;;;;;11.80;61.90;;;;;;4376571;32;20048;-77
2021/04/22 00:44:33;;;;;;;;;;;11.70;61.90;;;;;;4363599;32;20013;-77
2021/04/22 00:47:05;;;;;;;;;;;11.70;61.90;;;;;;4376464;32;20143;-77
2021/04/22 00:49:32;;;;;;;;;;;11.70;62.00;;;;;;4377048;32;20009;-77
2021/04/22 00:52:04;;;;;;;;;;;11.70;62.10;;;;;;4375742;32;39610;-77
2021/04/22 00:54:32;;;;;;;;;;;11.60;61.90;;;;;;4376082;32;26986;-77
2021/04/22 00:57:01;;;;;;;;;;;11.60;62.30;;;;;;4375647;32;22337;-77
2021/04/22 00:59:31;;;;;;;;;;;11.60;61.90;;;;;;4375001;32;42654;-77
2021/04/22 01:02:00;;;;;;;;;;;11.60;61.90;;;;;;4348152;32;20048;-77
2021/04/22 01:04:33;;;;;;;;;;;11.60;61.80;;;;;;4360302;32;20056;-77
2021/04/22 01:07:06;;;;;;;;;;;11.50;61.60;;;;;;4361881;32;20068;-77
2021/04/22 01:09:38;;;;;;;;;;;11.50;61.70;;;;;;4347893;32;20001;-77
2021/04/22 01:12:09;;;;;;;;;;;11.50;61.70;;;;;;4360791;32;33511;-77
2021/04/22 01:14:40;;;;;;;;;;;11.50;61.70;;;;;;4359695;32;41860;-77
2021/04/22 01:17:12;;;;;;;;;;;11.40;61.70;;;;;;4359480;32;36457;-77
2021/04/22 01:19:42;;;;;;;;;;;11.40;61.70;;;;;;4359434;32;35915;-77
2021/04/22 01:22:14;;;;;;;;;;;11.40;61.70;;;;;;4372944;32;20017;-77
2021/04/22 01:24:46;;;;;;;;;;;11.40;61.70;;;;;;4347060;32;36262;-77
2021/04/22 01:27:19;;;;;;;;;;;11.40;61.50;;;;;;4371774;32;36109;-77
2021/04/22 01:29:51;;;;;;;;;;;11.30;61.60;;;;;;4359209;32;40749;-77
2021/04/22 01:32:20;;;;;;;;;;;11.30;61.50;;;;;;4371618;32;41424;-77
2021/04/22 01:34:52;;;;;;;;;;;11.30;61.50;;;;;;4360151;32;20366;-77
2021/04/22 01:37:25;;;;;;;;;;;11.20;61.40;;;;;;4359913;32;20056;-77
2021/04/22 01:39:57;;;;;;;;;;;11.20;61.40;;;;;;4359992;33;20019;-77
2021/04/22 01:42:26;;;;;;;;;;;11.20;61.30;;;;;;4346375;33;43900;-77
2021/04/22 01:44:55;;;;;;;;;;;11.20;61.60;;;;;;4346800;33;40299;-77
2021/04/22 01:47:25;;;;;;;;;;;11.20;61.70;;;;;;4372713;32;20456;-77
2021/04/22 01:49:57;;;;;;;;;;;11.10;61.70;;;;;;4347528;33;19997;-77
2021/04/22 01:52:27;;;;;;;;;;;11.10;61.50;;;;;;4347860;33;20406;-77
2021/04/22 01:54:59;;;;;;;;;;;11.10;61.50;;;;;;4363650;32;20065;-77
2021/04/22 01:57:31;;;;;;;;;;;11.00;61.40;;;;;;4362291;32;35452;-77
2021/04/22 02:00:01;;;;;;;;;;;11.00;61.40;;;;;;4362106;32;40568;-77
2021/04/22 02:02:33;;;;;;;;;;;11.00;61.40;;;;;;4350525;32;20505;-77
2021/04/22 02:05:08;;;;;;;;;;;10.90;61.50;;;;;;4363030;32;36030;-76
2021/04/22 02:07:37;;;;;;;;;;;10.90;61.60;;;;;;4363198;32;41756;-77
2021/04/22 02:10:08;;;;;;;;;;;10.90;61.60;;;;;;4363972;32;20009;-77
2021/04/22 02:12:40;;;;;;;;;;;10.90;61.50;;;;;;4350608;32;20025;-77
2021/04/22 02:15:14;;;;;;;;;;;10.90;61.70;;;;;;4364389;32;20074;-77
2021/04/22 02:17:44;;;;;;;;;;;10.80;61.40;;;;;;4362890;32;20045;-77
2021/04/22 02:20:21;;;;;;;;;;;10.80;61.50;;;;;;4363083;32;20036;-77
2021/04/22 02:22:52;;;;;;;;;;;10.80;61.50;;;;;;4374103;32;44403;-77
2021/04/22 02:25:27;;;;;;;;;;;10.80;61.60;;;;;;4350464;32;20005;-77
2021/04/22 02:27:58;;;;;;;;;;;10.80;61.60;;;;;;4375562;32;20008;-77
2021/04/22 02:30:29;;;;;;;;;;;10.70;61.60;;;;;;4363100;32;20330;-77
2021/04/22 02:33:04;;;;;;;;;;;10.70;61.50;;;;;;4373834;32;38281;-77
2021/04/22 02:35:39;;;;;;;;;;;10.60;61.50;;;;;;4350350;32;19993;-77
2021/04/22 02:38:14;;;;;;;;;;;10.60;61.70;;;;;;4361844;32;27410;-77
2021/04/22 02:40:42;;;;;;;;;;;10.60;61.70;;;;;;4362562;32;44700;-76
2021/04/22 02:43:13;;;;;;;;;;;10.60;61.60;;;;;;4361271;32;44162;-77
2021/04/22 02:45:47;;;;;;;;;;;10.60;61.80;;;;;;4373920;32;42921;-77
2021/04/22 02:48:16;;;;;;;;;;;10.50;61.80;;;;;;4362837;32;19997;-77
2021/04/22 02:50:49;;;;;;;;;;;10.50;61.80;;;;;;4363406;32;20015;-77
2021/04/22 02:53:22;;;;;;;;;;;10.50;61.40;;;;;;4363639;32;20020;-77
2021/04/22 02:55:57;;;;;;;;;;;10.40;61.80;;;;;;4363398;32;20013;-77
2021/04/22 02:58:27;;;;;;;;;;;10.50;61.90;;;;;;4361785;32;24179;-77
2021/04/22 03:01:00;;;;;;;;;;;10.40;62.00;;;;;;4349967;32;20013;-77
2021/04/22 03:03:48;;;;;;;;;;;10.40;62.00;;;;;;4377479;32;20008;-77
2021/04/22 03:06:17;;;;;;;;;;;10.40;62.00;;;;;;4377151;32;43450;-77
2021/04/22 03:08:43;;;;;;;;;;;10.30;61.90;;;;;;4363773;32;25064;-77
2021/04/22 03:11:13;;;;;;;;;;;10.30;62.00;;;;;;4363541;32;44064;-77
2021/04/22 03:13:40;;;;;;;;;;;10.30;62.10;;;;;;4363723;32;44247;-77
2021/04/22 03:16:13;;;;;;;;;;;10.30;62.10;;;;;;4377764;32;20009;-77
2021/04/22 03:18:45;;;;;;;;;;;10.30;62.10;;;;;;4362957;32;43709;-77
2021/04/22 03:21:15;;;;;;;;;;;10.30;62.20;;;;;;4363406;32;42020;-77
2021/04/22 03:23:45;;;;;;;;;;;10.20;62.20;;;;;;4375651;32;35750;-77
2021/04/22 03:26:17;;;;;;;;;;;10.20;62.30;;;;;;4351811;32;20043;-77
2021/04/22 03:28:49;;;;;;;;;;;10.20;61.90;;;;;;4363349;32;39672;-77
2021/04/22 03:31:16;;;;;;;;;;;10.20;62.10;;;;;;4377050;32;38712;-77
2021/04/22 03:33:48;;;;;;;;;;;10.20;62.10;;;;;;4376931;32;37814;-77
2021/04/22 03:36:20;;;;;;;;;;;10.10;63.00;;;;;;4351514;32;21547;-77
2021/04/22 03:38:54;;;;;;;;;;;10.10;62.30;;;;;;4377801;32;20012;-77
2021/04/22 03:41:25;;;;;;;;;;;10.10;62.20;;;;;;4375637;32;44602;-77
2021/04/22 03:43:58;;;;;;;;;;;10.00;62.30;;;;;;4375489;32;42524;-77
2021/04/22 03:46:27;;;;;;;;;;;10.00;62.30;;;;;;4376256;32;20357;-77
2021/04/22 03:49:00;;;;;;;;;;;10.00;62.40;;;;;;4350941;32;28092;-77
2021/04/22 03:51:35;;;;;;;;;;;10.00;62.40;;;;;;4364183;32;20023;-77
2021/04/22 03:54:07;;;;;;;;;;;10.00;62.20;;;;;;4363117;32;33038;-77
2021/04/22 03:56:40;;;;;;;;;;;10.00;62.50;;;;;;4351754;32;20342;-77
2021/04/22 03:59:12;;;;;;;;;;;10.00;62.50;;;;;;4377457;32;20069;-77
2021/04/22 04:01:50;;;;;;;;;;;9.90;62.40;;;;;;4375105;32;41349;-77
2021/04/22 04:04:23;;;;;;;;;;;9.90;62.60;;;;;;4363722;32;22737;-77
2021/04/22 04:06:55;;;;;;;;;;;9.90;62.70;;;;;;4376358;32;20022;-77
2021/04/22 04:09:26;;;;;;;;;;;9.90;62.80;;;;;;4362933;32;34822;-77
2021/04/22 04:12:01;;;;;;;;;;;9.90;62.90;;;;;;4377595;32;20005;-77
2021/04/22 04:14:34;;;;;;;;;;;9.90;62.80;;;;;;4363673;32;20437;-77
2021/04/22 04:17:07;;;;;;;;;;;9.80;62.80;;;;;;4376868;32;20029;-77
2021/04/22 04:19:42;;;;;;;;;;;9.80;62.80;;;;;;4362783;32;34761;-77
2021/04/22 04:22:14;;;;;;;;;;;9.80;62.70;;;;;;4375700;32;29695;-77
2021/04/22 04:24:52;;;;;;;;;;;9.80;62.70;;;;;;4362745;32;32742;-77
2021/04/22 04:27:22;;;;;;;;;;;9.80;62.70;;;;;;4376167;32;44981;-77
2021/04/22 04:29:49;;;;;;;;;;;9.70;63.00;;;;;;4363245;32;20013;-77
2021/04/22 04:32:22;;;;;;;;;;;9.70;63.00;;;;;;4363159;32;20015;-76
2021/04/22 04:35:00;;;;;;;;;;;9.70;63.10;;;;;;4376883;32;20035;-76
2021/04/22 04:37:35;;;;;;;;;;;9.70;63.20;;;;;;4375957;32;43844;-76
2021/04/22 04:40:07;;;;;;;;;;;9.70;63.20;;;;;;4349740;32;42261;-76
2021/04/22 04:42:42;;;;;;;;;;;9.70;63.10;;;;;;4376148;32;35413;-76
2021/04/22 04:45:14;;;;;;;;;;;9.60;63.10;;;;;;4362057;32;41735;-76
2021/04/22 04:47:48;;;;;;;;;;;9.60;63.10;;;;;;4363155;32;20405;-76
2021/04/22 04:50:18;;;;;;;;;;;9.60;63.20;;;;;;4363340;32;20024;-76
2021/04/22 04:52:55;;;;;;;;;;;9.60;63.30;;;;;;4376240;32;29759;-76
2021/04/22 04:55:27;;;;;;;;;;;9.60;63.40;;;;;;4376586;32;20009;-76
2021/04/22 04:57:59;;;;;;;;;;;9.60;63.60;;;;;;4376760;32;20043;-76
2021/04/22 05:00:32;;;;;;;;;;;9.60;63.60;;;;;;4349661;32;42670;-76
2021/04/22 05:03:06;;;;;;;;;;;9.50;63.60;;;;;;4375242;32;39814;-76
2021/04/22 05:05:33;;;;;;;;;;;9.50;63.60;;;;;;4361692;32;46000;-76
2021/04/22 05:08:06;;;;;;;;;;;9.50;63.70;;;;;;4362719;32;20004;-76
2021/04/22 05:10:38;;;;;;;;;;;9.50;63.90;;;;;;4375574;32;42453;-76
2021/04/22 05:13:13;;;;;;;;;;;9.50;63.90;;;;;;4376634;32;20088;-76
2021/04/22 05:15:39;;;;;;;;;;;9.50;64.00;;;;;;4349152;32;43031;-76
2021/04/22 05:18:11;;;;;;;;;;;9.40;63.90;;;;;;4362780;32;20038;-76
2021/04/22 05:20:43;;;;;;;;;;;9.40;63.90;;;;;;4361874;32;43552;-76
2021/04/22 05:23:16;;;;;;;;;;;9.40;64.10;;;;;;4362241;32;29514;-76
2021/04/22 05:25:47;;;;;;;;;;;9.40;64.20;;;;;;4361520;32;42357;-76
2021/04/22 05:28:19;;;;;;;;;;;9.40;64.40;;;;;;4373570;32;30072;-76
2021/04/22 05:30:49;;;;;;;;;;;9.40;64.60;;;;;;4376045;32;20004;-76
2021/04/22 05:33:25;;;;;;;;;;;9.40;64.50;;;;;;4362657;32;38880;-76
2021/04/22 05:35:57;;;;;;;;;;;9.30;64.70;;;;;;4376767;32;20009;-76
2021/04/22 05:38:30;;;;;;;;;;;9.40;64.80;;;;;;4350487;32;20009;-76
2021/04/22 05:41:07;;;;;;;;;;;9.30;64.90;;;;;;4375268;32;41118;-76
2021/04/22 05:43:37;;;;;;;;;;;9.30;65.10;;;;;;4361688;32;43221;-76
2021/04/22 05:46:09;;;;;;;;;;;9.30;65.10;;;;;;4375134;32;20028;-76
2021/04/22 05:48:42;;;;;;;;;;;9.30;65.10;;;;;;4362724;32;20065;-76
2021/04/22 05:51:17;;;;;;;;;;;9.30;66.00;;;;;;4375523;32;20004;-76
2021/04/22 05:53:52;;;;;;;;;;;9.30;65.40;;;;;;4349206;32;20437;-76
2021/04/22 05:56:30;;;;;;;;;;;9.30;65.60;;;;;;4375057;32;43912;-76
2021/04/22 05:59:02;;;;;;;;;;;9.30;65.70;;;;;;4361159;32;45077;-76
2021/04/22 06:01:35;;;;;;;;;;;9.20;65.80;;;;;;4350238;32;20120;-76
2021/04/22 06:04:05;;;;;;;;;;;9.20;66.00;;;;;;4374169;32;38196;-76
2021/04/22 06:06:40;;;;;;;;;;;9.20;66.20;;;;;;4373941;32;41955;-76
2021/04/22 06:09:12;;;;;;;;;;;9.30;66.20;;;;;;4349326;32;33870;-76
2021/04/22 06:11:41;;;;;;;;;;;9.20;66.10;;;;;;4376014;32;20115;-76
2021/04/22 06:14:13;;;;;;;;;;;9.20;66.30;;;;;;4375287;32;24912;-76
2021/04/22 06:16:45;;;;;;;;;;;9.20;66.50;;;;;;4362240;32;20010;-76
2021/04/22 06:19:14;;;;;;;;;;;9.20;66.60;;;;;;4374834;32;38147;-76
2021/04/22 06:21:44;;;;;;;;;;;9.20;66.90;;;;;;4375045;32;44792;-76
2021/04/22 06:24:16;;;;;;;;;;;9.20;66.90;;;;;;4375098;32;42374;-76
2021/04/22 06:26:48;;;;;;;;;;;9.20;67.10;;;;;;4361204;32;39050;-76
2021/04/22 06:29:21;;;;;;;;;;;9.20;67.20;;;;;;4376191;32;20022;-76
2021/04/22 06:31:51;;;;;;;;;;;9.20;67.40;;;;;;4361373;32;44835;-76
2021/04/22 06:34:20;;;;;;;;;;;9.20;67.40;;;;;;4349899;32;20004;-76
2021/04/22 06:36:49;;;;;;;;;;;9.20;67.50;;;;;;4361897;32;20465;-76
2021/04/22 06:39:22;;;;;;;;;;;9.20;67.50;;;;;;4362218;32;19997;-76
2021/04/22 06:41:54;;;;;;;;;;;9.20;67.70;;;;;;4378117;32;20064;-76
2021/04/22 06:44:27;;;;;;;;;;;9.20;67.80;;;;;;4352070;32;33916;-76
2021/04/22 06:46:56;;;;;;;;;;;9.20;67.80;;;;;;4378879;32;20006;-76
2021/04/22 06:49:29;;;;;;;;;;;9.20;68.00;;;;;;4376610;32;40869;-76
2021/04/22 06:51:56;;;;;;;;;;;9.20;68.00;;;;;;4364165;32;31277;-76
2021/04/22 06:54:25;;;;;;;;;;;9.20;68.10;;;;;;4377612;32;20026;-76
2021/04/22 06:56:57;;;;;;;;;;;9.20;68.20;;;;;;4378475;32;20031;-76
2021/04/22 06:59:27;;;;;;;;;;;9.30;68.30;;;;;;4377402;32;20068;-76
2021/04/22 07:01:56;;;;;;;;;;;9.20;68.20;;;;;;4378007;32;20018;-76
2021/04/22 07:04:23;;;;;;;;;;;9.30;68.10;;;;;;4378274;32;20056;-76
2021/04/22 07:06:56;;;;;;;;;;;9.20;67.90;;;;;;4378338;32;20346;-76
2021/04/22 07:09:32;;;;;;;;;;;9.20;67.80;;;;;;4377424;32;41546;-75
2021/04/22 07:11:59;;;;;;;;;;;9.20;67.80;;;;;;4376960;32;43516;-76
2021/04/22 07:14:31;;;;;;;;;;;9.30;68.10;;;;;;4364269;32;20097;-76
2021/04/22 07:17:03;;;;;;;;;;;9.20;67.90;;;;;;4363353;32;43501;-76
2021/04/22 07:19:38;;;;;;;;;;;9.30;67.80;;;;;;4352138;32;20010;-76
2021/04/22 07:22:07;;;;;;;;;;;9.30;67.80;;;;;;4351762;32;20015;-76
2021/04/22 07:24:39;;;;;;;;;;;9.30;67.60;;;;;;4376884;32;33784;-76
2021/04/22 07:27:12;;;;;;;;;;;9.30;67.60;;;;;;4376100;32;44246;-76
2021/04/22 07:29:47;;;;;;;;;;;9.30;67.40;;;;;;4364229;32;20072;-76
2021/04/22 07:32:19;;;;;;;;;;;9.30;67.40;;;;;;4363142;32;43315;-76
2021/04/22 07:34:51;;;;;;;;;;;9.30;67.40;;;;;;4350893;32;39905;-76
2021/04/22 07:37:21;;;;;;;;;;;9.30;67.00;;;;;;4363648;32;36181;-76
2021/04/22 07:39:53;;;;;;;;;;;9.30;66.90;;;;;;4364066;32;20012;-76
2021/04/22 07:42:22;;;;;;;;;;;9.20;66.60;;;;;;4376973;32;37472;-76
2021/04/22 07:44:54;;;;;;;;;;;9.30;67.40;;;;;;4363211;32;20000;-76
2021/04/22 07:47:27;;;;;;;;;;;9.30;66.40;;;;;;4375841;32;41365;-76
2021/04/22 07:49:59;;;;;;;;;;;9.30;66.40;;;;;;4362895;32;36595;-76
2021/04/22 07:52:34;;;;;;;;;;;9.30;66.50;;;;;;4364069;32;20008;-76
2021/04/22 07:55:05;;;;;;;;;;;9.30;66.40;;;;;;4351574;32;20048;-76
2021/04/22 07:57:38;;;;;;;;;;;9.30;66.10;;;;;;4376472;32;20016;-76
2021/04/22 08:00:31;;;;;;;;;;;9.30;66.10;;;;;;4376433;32;20030;-76
2021/04/22 08:03:05;;;;;;;;;;;9.30;65.90;;;;;;4376977;32;20063;-76
2021/04/22 08:05:36;;;;;;;;;;;9.30;66.00;;;;;;4362709;32;44961;-76
2021/04/22 08:08:09;;;;;;;;;;;9.30;66.20;;;;;;4362811;32;37141;-76
2021/04/22 08:10:40;;;;;;;;;;;9.30;66.20;;;;;;4376543;32;20075;-76
2021/04/22 08:13:15;;;;;;;;;;;9.40;66.30;;;;;;4376514;32;20060;-76
2021/04/22 08:15:46;;;;;;;;;;;9.40;66.10;;;;;;4377439;32;20056;-76
2021/04/22 08:18:22;;;;;;;;;;;9.40;65.90;;;;;;4377463;32;20008;-76
2021/04/22 08:20:53;;;;;;;;;;;9.40;65.80;;;;;;4364183;32;20469;-76
2021/04/22 08:23:47;;;;;;;;;;;9.40;65.80;;;;;;4365610;32;20106;-76
2021/04/22 08:26:36;;;;;;;;;;;9.40;65.60;;;;;;4376875;32;20015;-76
2021/04/22 08:29:25;;;;;;;;;;;9.40;65.40;;;;;;4377297;32;20012;-76
2021/04/22 08:32:11;;;;;;;;;;;9.40;65.40;;;;;;4365666;32;20019;-76
2021/04/22 08:34:59;;;;;;;;;;;9.50;65.30;;;;;;4376191;32;20072;-76
2021/04/22 08:37:48;;;;;;;;;;;9.50;65.20;;;;;;4365667;32;20015;-76
2021/04/22 08:40:39;;;;;;;;;;;9.50;65.20;;;;;;4375844;32;20051;-76
2021/04/22 08:43:32;;;;;;;;;;;9.50;65.10;;;;;;4376604;32;20039;-76
2021/04/22 08:46:18;;;;;;;;;;;9.50;65.10;;;;;;4376985;32;20013;-76
2021/04/22 08:49:10;;;;;;;;;;;9.50;64.90;;;;;;4376934;32;20058;-76
2021/04/22 08:52:02;;;;;;;;;;;9.50;64.90;;;;;;4375892;32;20490;-77
2021/04/22 08:54:54;;;;;;;;;;;9.50;64.80;;;;;;4376622;32;20051;-77
2021/04/22 08:57:39;;;;;;;;;;;9.50;64.70;;;;;;4376900;32;20070;-77
2021/04/22 09:00:28;;;;;;;;;;;9.60;64.60;;;;;;4376692;32;20415;-77
2021/04/22 09:03:19;;;;;;;;;;;9.60;64.70;;;;;;4376318;32;20016;-77
2021/04/22 09:06:11;;;;;;;;;;;9.60;64.90;;;;;;4376320;32;20014;-77
2021/04/22 09:09:02;;;;;;;;;;;9.60;64.80;;;;;;4376652;32;20411;-77
2021/04/22 09:11:55;;;;;;;;;;;9.60;64.60;;;;;;4376345;32;20011;-78
2021/04/22 09:14:56;;;;;;;;;;;9.60;64.40;;;;;;4365150;32;20436;-77
2021/04/22 09:17:54;;;;;;;;;;;9.60;64.50;;;;;;4376358;32;20412;-77
2021/04/22 09:20:52;;;;;;;;;;;9.60;64.40;;;;;;4376217;32;20011;-77
2021/04/22 09:23:53;;;;;;;;;;;9.70;64.50;;;;;;4376374;32;20417;-77
2021/04/22 09:26:45;;;;;;;;;;;9.60;64.50;;;;;;4376579;32;20187;-77
2021/04/22 09:29:45;;;;;;;;;;;9.70;64.70;;;;;;4376607;32;20036;-77
2021/04/22 09:32:32;;;;;;;;;;;9.70;64.70;;;;;;4376259;32;20039;-77
2021/04/22 09:35:25;;;;;;;;;;;9.70;64.70;;;;;;4376054;32;20007;-77
2021/04/22 09:38:18;;;;;;;;;;;9.70;64.80;;;;;;4376135;32;20015;-77
2021/04/22 09:41:11;;;;;;;;;;;9.80;64.80;;;;;;4376388;32;20408;-77
2021/04/22 09:44:04;;;;;;;;;;;9.80;64.40;;;;;;4376355;32;20039;-77
2021/04/22 09:47:02;;;;;;;;;;;9.80;64.30;;;;;;4375986;32;20012;-77
2021/04/22 09:49:57;;;;;;;;;;;9.80;64.30;;;;;;4376421;32;20058;-77
2021/04/22 09:52:47;;;;;;;;;;;9.80;64.40;;;;;;4376029;32;20006;-77
2021/04/22 09:55:40;;;;;;;;;;;9.80;64.30;;;;;;4375864;32;20439;-77
2021/04/22 09:58:30;;;;;;;;;;;9.90;64.40;;;;;;4375982;32;20007;-77
2021/04/22 10:01:22;;;;;;;;;;;9.90;64.40;;;;;;4376096;32;20027;-77
2021/04/22 10:04:12;;;;;;;;;;;9.90;64.40;;;;;;4375888;32;20016;-77
2021/04/22 10:07:01;;;;;;;;;;;9.90;64.40;;;;;;4364440;32;20014;-77
2021/04/22 10:09:47;;;;;;;;;;;9.90;64.20;;;;;;4375027;32;20385;-77
2021/04/22 10:12:35;;;;;;;;;;;9.90;64.20;;;;;;4364531;32;20007;-77
2021/04/22 10:15:27;;;;;;;;;;;9.90;64.30;;;;;;4377616;32;20031;-77
2021/04/22 10:18:17;;;;;;;;;;;10.00;64.20;;;;;;4377997;32;20016;-77
2021/04/22 10:21:08;;;;;;;;;;;10.00;64.20;;;;;;4379032;32;20464;-77
2021/04/22 10:24:02;;;;;;;;;;;10.00;64.00;;;;;;4367885;32;20015;-77
2021/04/22 10:26:56;;;;;;;;;;;10.00;63.90;;;;;;4378882;32;20410;-77
2021/04/22 10:29:49;;;;;;;;;;;10.10;63.80;;;;;;4379066;32;20018;-77
2021/04/22 10:32:39;;;;;;;;;;;10.10;63.60;;;;;;4367520;32;20027;-77
2021/04/22 10:35:30;;;;;;;;;;;10.10;63.60;;;;;;4378318;32;20079;-77
2021/04/22 10:38:21;;;;;;;;;;;10.10;63.70;;;;;;4378874;32;20010;-77
2021/04/22 10:41:11;;;;;;;;;;;10.10;63.70;;;;;;4377796;32;20038;-77
2021/04/22 10:43:57;;;;;;;;;;;10.10;63.40;;;;;;4366943;32;20471;-77
2021/04/22 10:46:47;;;;;;;;;;;10.10;63.30;;;;;;4378742;32;20455;-77
2021/04/22 10:49:35;;;;;;;;;;;10.20;63.30;;;;;;4367023;32;20076;-77
2021/04/22 10:52:21;;;;;;;;;;;10.20;63.10;;;;;;4378594;32;20420;-77
2021/04/22 10:55:26;;;;;;;;;;;10.20;62.80;;;;;;4378624;32;20066;-77
2021/04/22 10:58:19;;;;;;;;;;;10.20;62.80;;;;;;4378231;32;20087;-77
2021/04/22 11:01:11;;;;;;;;;;;10.30;62.80;;;;;;4378565;32;20007;-77
2021/04/22 11:04:02;;;;;;;;;;;10.30;62.70;;;;;;4377498;32;20052;-77
2021/04/22 11:06:47;;;;;;;;;;;10.30;62.80;;;;;;4366804;32;20043;-77
2021/04/22 11:09:34;;;;;;;;;;;10.30;62.60;;;;;;4378411;32;20008;-77
2021/04/22 11:12:29;;;;;;;;;;;10.30;62.20;;;;;;4378119;32;20190;-78
2021/04/22 11:15:19;;;;;;;;;;;10.30;62.30;;;;;;4366677;32;20437;-77
2021/04/22 11:18:13;;;;;;;;;;;10.40;62.40;;;;;;4376863;32;20031;-77
2021/04/22 11:21:02;;;;;;;;;;;10.40;62.30;;;;;;4366791;32;20010;-77
2021/04/22 11:23:51;;;;;;;;;;;10.40;62.30;;;;;;4377812;32;20378;-77
2021/04/22 11:26:37;;;;;;;;;;;10.40;62.20;;;;;;4377900;32;20442;-77
2021/04/22 11:29:37;;;;;;;;;;;10.50;62.30;;;;;;4378003;32;20447;-77
2021/04/22 11:32:33;;;;;;;;;;;10.50;62.20;;;;;;4378044;32;20059;-77
2021/04/22 11:35:19;;;;;;;;;;;10.50;62.20;;;;;;4377944;32;20091;-77
2021/04/22 11:38:09;;;;;;;;;;;10.50;62.30;;;;;;4378001;32;20445;-77
2021/04/22 11:40:58;;;;;;;;;;;10.60;62.30;;;;;;4376657;32;20015;-77
2021/04/22 11:43:43;;;;;;;;;;;10.60;61.90;;;;;;4366219;32;20007;-77
2021/04/22 11:46:33;;;;;;;;;;;10.60;61.90;;;;;;4377668;32;20095;-77
2021/04/22 11:49:31;;;;;;;;;;;10.70;62.00;;;;;;4377846;32;20066;-77
2021/04/22 11:52:23;;;;;;;;;;;10.70;62.00;;;;;;4376829;32;20408;-77
2021/04/22 11:55:16;;;;;;;;;;;10.70;61.80;;;;;;4377804;32;20008;-77
2021/04/22 11:58:09;;;;;;;;;;;10.70;61.60;;;;;;4366118;32;20054;-77
2021/04/22 12:00:55;;;;;;;;;;;10.80;61.80;;;;;;4377213;32;20020;-77
2021/04/22 12:03:43;;;;;;;;;;;10.80;61.90;;;;;;4376435;32;20011;-77
2021/04/22 12:06:33;;;;;;;;;;;10.80;61.80;;;;;;4366195;32;20008;-77
2021/04/22 12:09:25;;;;;;;;;;;10.90;61.80;;;;;;4377300;32;20064;-77
2021/04/22 12:12:22;;;;;;;;;;;10.90;61.80;;;;;;4377213;32;20020;-77
2021/04/22 12:15:13;;;;;;;;;;;10.90;61.70;;;;;;4377214;32;20015;-77
2021/04/22 12:18:04;;;;;;;;;;;10.90;61.70;;;;;;4377367;32;20007;-76
2021/04/22 12:21:04;;;;;;;;;;;11.00;61.70;;;;;;4365985;32;20070;-76
2021/04/22 12:23:54;;;;;;;;;;;11.10;61.80;;;;;;4377131;32;20451;-76
2021/04/22 12:26:41;;;;;;;;;;;11.00;61.70;;;;;;4377331;32;20011;-77
2021/04/22 12:29:32;;;;;;;;;;;11.10;61.60;;;;;;4377028;32;20039;-76
2021/04/22 12:32:22;;;;;;;;;;;11.10;61.50;;;;;;4376823;32;20015;-76
2021/04/22 12:35:16;;;;;;;;;;;11.10;61.50;;;;;;4376308;32;20428;-76
2021/04/22 12:38:20;;;;;;;;;;;11.20;61.50;;;;;;4365108;32;20032;-76
2021/04/22 12:41:07;;;;;;;;;;;11.20;61.70;;;;;;4376802;32;20020;-76
2021/04/22 12:43:58;;;;;;;;;;;11.30;61.60;;;;;;4376581;32;20012;-76
2021/04/22 12:46:47;;;;;;;;;;;11.30;61.60;;;;;;4376596;32;20031;-76
2021/04/22 12:49:36;;;;;;;;;;;11.40;61.60;;;;;;4365608;32;20415;-76
2021/04/22 12:52:22;;;;;;;;;;;11.40;61.60;;;;;;4376803;32;20050;-76
2021/04/22 12:55:12;;;;;;;;;;;11.40;61.40;;;;;;4376785;32;20023;-76
2021/04/22 12:58:04;;;;;;;;;;;11.40;61.20;;;;;;4376837;32;20038;-76
2021/04/22 13:00:55;;;;;;;;;;;11.50;60.90;;;;;;4365275;32;20144;-76
2021/04/22 13:03:48;;;;;;;;;;;11.50;60.80;;;;;;4375509;32;20035;-76
2021/04/22 13:06:42;;;;;;;;;;;11.50;60.90;;;;;;4364927;32;20047;-76
2021/04/22 13:09:32;;;;;;;;;;;11.60;61.00;;;;;;4376509;32;20048;-76
2021/04/22 13:12:17;;;;;;;;;;;11.60;61.20;;;;;;4376344;32;20007;-76
2021/04/22 13:15:06;;;;;;;;;;;11.70;60.90;;;;;;4376308;32;20444;-76
2021/04/22 13:18:12;;;;;;;;;;;11.70;60.60;;;;;;4376306;32;20052;-76
2021/04/22 13:21:00;;;;;;;;;;;11.80;60.60;;;;;;4376673;32;20015;-76
2021/04/22 13:23:46;;;;;;;;;;;11.80;60.50;;;;;;4364978;32;20019;-76
2021/04/22 13:26:16;;;;;;;;;;;11.80;60.40;;;;;;4361298;32;44831;-77
2021/04/22 13:28:55;;;;;;;;;;;11.80;60.50;;;;;;4351197;32;20020;-76
2021/04/22 13:31:25;;;;;;;;;;;11.90;60.60;;;;;;4362741;32;20353;-76
2021/04/22 13:34:05;;;;;;;;;;;12.00;60.40;;;;;;4350356;32;19993;-76
2021/04/22 13:36:39;;;;;;;;;;;12.00;60.50;;;;;;4362994;32;20027;-76
2021/04/22 13:39:12;;;;;;;;;;;12.00;60.50;;;;;;4362961;32;20031;-76
2021/04/22 13:41:45;;;;;;;;;;;12.10;60.20;;;;;;4375251;32;20131;-76
2021/04/22 13:44:18;;;;;;;;;;;12.10;60.20;;;;;;4362555;32;20020;-76
2021/04/22 13:46:58;;;;;;;;;;;12.10;60.90;;;;;;4350770;32;19997;-76
2021/04/22 13:49:28;;;;;;;;;;;12.20;60.30;;;;;;4361620;32;44555;-76
2021/04/22 13:52:07;;;;;;;;;;;12.20;60.20;;;;;;4365116;32;41250;-76
2021/04/22 13:54:40;;;;;;;;;;;12.20;59.90;;;;;;4377966;32;20004;-76
2021/04/22 13:57:17;;;;;;;;;;;12.30;60.00;;;;;;4378358;32;20453;-76
2021/04/22 14:00:04;;;;;;;;;;;12.30;59.70;;;;;;4378568;32;20072;-76
2021/04/22 14:02:32;;;;;;;;;;;12.40;59.60;;;;;;4369854;32;20015;-76
2021/04/22 14:05:06;;;;;;;;;;;12.40;59.50;;;;;;4365556;32;20030;-76
2021/04/22 14:07:33;;;;;;;;;;;12.50;59.50;;;;;;4378279;32;20058;-76
2021/04/22 14:10:05;;;;;;;;;;;12.50;59.30;;;;;;4378766;32;20083;-76
2021/04/22 14:12:37;;;;;;;;;;;12.50;59.20;;;;;;4353234;32;20052;-76
2021/04/22 14:15:08;;;;;;;;;;;12.60;59.20;;;;;;4364372;32;43512;-77
2021/04/22 14:17:37;;;;;;;;;;;12.60;59.30;;;;;;4379099;32;20004;-77
2021/04/22 14:20:08;;;;;;;;;;;12.60;59.20;;;;;;4377108;32;43637;-77
2021/04/22 14:22:38;;;;;;;;;;;12.70;59.50;;;;;;4364728;32;20043;-77
2021/04/22 14:25:05;;;;;;;;;;;12.70;59.70;;;;;;4376875;32;40357;-77
2021/04/22 14:27:35;;;;;;;;;;;12.80;59.50;;;;;;4365029;32;26399;-76
2021/04/22 14:30:04;;;;;;;;;;;12.80;59.50;;;;;;4365508;32;20394;-76
2021/04/22 14:32:36;;;;;;;;;;;12.90;59.20;;;;;;4352810;32;20079;-76
2021/04/22 14:35:06;;;;;;;;;;;12.90;59.00;;;;;;4364397;32;22780;-76
2021/04/22 14:37:35;;;;;;;;;;;12.90;58.80;;;;;;4376757;32;28669;-76
2021/04/22 14:40:22;;;;;;;;;;;13.00;58.60;;;;;;4378375;32;20008;-76
2021/04/22 14:42:48;;;;;;;;;;;13.00;58.40;;;;;;4351621;32;43411;-76
2021/04/22 14:45:18;;;;;;;;;;;13.00;58.40;;;;;;4363475;32;46974;-76
2021/04/22 14:47:44;;;;;;;;;;;13.10;58.40;;;;;;4377389;32;20038;-76
2021/04/22 14:50:20;;;;;;;;;;;13.10;58.20;;;;;;4364872;32;20406;-76
2021/04/22 14:52:46;;;;;;;;;;;13.10;58.30;;;;;;4376242;32;45090;-76
2021/04/22 14:55:13;;;;;;;;;;;13.10;58.40;;;;;;4378626;32;20087;-76
2021/04/22 14:57:49;;;;;;;;;;;13.20;58.20;;;;;;4364900;32;19997;-76
2021/04/22 15:00:22;;;;;;;;;;;13.20;58.10;;;;;;4364166;32;20048;-76
2021/04/22 15:02:51;;;;;;;;;;;13.30;58.00;;;;;;4377247;32;31667;-76
2021/04/22 15:05:21;;;;;;;;;;;13.30;58.10;;;;;;4364429;32;20004;-76
2021/04/22 15:07:59;;;;;;;;;;;13.30;58.10;;;;;;4364386;32;20027;-76
2021/04/22 15:10:31;;;;;;;;;;;13.40;57.90;;;;;;4363558;32;38998;-76
2021/04/22 15:13:00;;;;;;;;;;;13.40;57.80;;;;;;4377562;32;35852;-76
2021/04/22 15:15:33;;;;;;;;;;;13.40;57.60;;;;;;4376356;32;20389;-76
2021/04/22 15:18:02;;;;;;;;;;;13.40;57.60;;;;;;4364836;32;20051;-76
2021/04/22 15:20:34;;;;;;;;;;;13.50;57.80;;;;;;4364435;32;19997;-76
2021/04/22 15:23:10;;;;;;;;;;;13.50;58.10;;;;;;4377061;32;20012;-76